Time;durP1;ratioP1;P1;durP2;ratioP2;P2;SDS_P1;SDS_P2;PMS_P1;PMS_P2;Temp;Humidity;BMP_temperature;BMP_pressure;BME280_temperature;BME280_humidity;BME280_pressure;Samples;Min_cycle;Max_cycle;Signal;HPM_P1;HPM_P2
2021/11/17 02:26:48;;;;;;;25.10;12.17;;;;;;;4.49;88.86;101975.34;4967769;28;20254;-73
2021/11/17 02:29:43;;;;;;;25.80;13.37;;;;;;;4.48;88.87;101968.53;5001139;28;20210;-72
2021/11/17 02:32:33;;;;;;;28.67;14.23;;;;;;;4.52;88.90;101965.41;5027108;28;20284;-73
2021/11/17 02:35:17;;;;;;;24.73;12.70;;;;;;;4.52;89.02;101962.88;5017483;28;20649;-73
2021/11/17 02:37:55;;;;;;;28.13;13.73;;;;;;;4.50;88.63;101954.28;5045295;28;20213;-73
2021/11/17 02:40:36;;;;;;;27.20;13.93;;;;;;;4.42;88.62;101966.47;5051672;28;20205;-73
2021/11/17 02:43:16;;;;;;;25.10;12.93;;;;;;;4.46;88.67;101968.44;5052119;28;20568;-73
2021/11/17 02:46:00;;;;;;;26.17;14.07;;;;;;;4.40;89.07;101962.09;5051756;28;20194;-73
2021/11/17 02:48:50;;;;;;;28.23;14.63;;;;;;;4.43;89.29;101967.38;5051334;28;20194;-72
2021/11/17 02:51:32;;;;;;;26.03;13.47;;;;;;;4.46;89.72;101950.69;5030323;28;20643;-72
2021/11/17 02:54:13;;;;;;;28.03;13.80;;;;;;;4.43;89.10;101949.63;5029865;28;20283;-72
2021/11/17 02:56:59;;;;;;;28.60;14.23;;;;;;;4.43;89.39;101945.44;5030379;28;20203;-73
2021/11/17 02:59:27;;;;;;;25.40;13.43;;;;;;;4.46;89.60;101952.34;5010049;28;20229;-75
2021/11/17 03:02:11;;;;;;;28.83;13.37;;;;;;;4.44;89.57;101949.72;5031328;28;20683;-73
2021/11/17 03:04:52;;;;;;;31.13;14.10;;;;;;;4.40;89.29;101945.25;5031132;28;20198;-73
2021/11/17 03:07:35;;;;;;;29.90;13.57;;;;;;;4.41;89.01;101941.03;5025305;28;20206;-74
2021/11/17 03:10:22;;;;;;;29.47;14.03;;;;;;;4.44;89.13;101936.16;5029828;28;20211;-71
2021/11/17 03:12:56;;;;;;;31.20;13.63;;;;;;;4.44;89.39;101933.63;5031317;28;20190;-73
2021/11/17 03:15:51;;;;;;;28.40;14.00;;;;;;;4.39;89.58;101925.75;5030227;28;20553;-74
2021/11/17 03:18:58;;;;;;;27.50;13.10;;;;;;;4.40;89.38;101924.06;5030525;28;20195;-74
2021/11/17 03:21:45;;;;;;;27.93;12.87;;;;;;;4.42;89.83;101923.38;5037835;28;20193;-74
2021/11/17 03:24:22;;;;;;;29.67;14.10;;;;;;;4.40;89.85;101917.34;5051015;28;20217;-72
2021/11/17 03:27:08;;;;;;;27.87;13.87;;;;;;;4.38;89.89;101918.91;5050917;28;20193;-73
2021/11/17 03:30:21;;;;;;;31.70;15.10;;;;;;;4.37;90.00;101921.38;5050497;28;20278;-74
2021/11/17 03:33:19;;;;;;;29.93;14.17;;;;;;;4.36;89.88;101917.06;5007328;28;20229;-74
2021/11/17 03:36:02;;;;;;;28.80;13.17;;;;;;;4.38;89.71;101906.22;5030792;28;20206;-73
2021/11/17 03:38:38;;;;;;;30.47;14.90;;;;;;;4.38;90.06;101912.97;4997583;28;20190;-74
2021/11/17 03:41:41;;;;;;;29.67;14.07;;;;;;;4.36;90.31;101914.53;5046280;28;20216;-74
2021/11/17 03:44:25;;;;;;;29.17;13.80;;;;;;;4.36;90.50;101917.06;5062714;28;20229;-74
2021/11/17 03:47:10;;;;;;;29.90;13.90;;;;;;;4.33;90.43;101917.75;5031599;28;20190;-74
2021/11/17 03:49:54;;;;;;;34.07;14.60;;;;;;;4.36;90.38;101914.53;5015032;28;20726;-74
2021/11/17 03:52:29;;;;;;;32.30;13.87;;;;;;;4.37;90.91;101916.31;5012888;28;20185;-74
2021/11/17 03:55:14;;;;;;;32.23;15.00;;;;;;;4.35;90.94;101918.75;5029379;28;20727;-73
2021/11/17 03:57:52;;;;;;;31.67;13.63;;;;;;;4.39;90.83;101917.25;5040866;28;20212;-74
2021/11/17 04:00:32;;;;;;;32.77;13.97;;;;;;;4.39;90.91;101917.25;5047360;28;20201;-73
2021/11/17 04:03:01;;;;;;;30.80;14.10;;;;;;;4.36;91.27;101912.00;5038039;28;20197;-73
2021/11/17 04:05:43;;;;;;;33.13;14.30;;;;;;;4.37;91.46;101912.09;5030036;28;20206;-73
2021/11/17 04:08:51;;;;;;;39.50;15.17;;;;;;;4.32;91.66;101910.09;5028871;28;20183;-73
2021/11/17 04:11:25;;;;;;;34.00;14.17;;;;;;;4.32;91.76;101917.69;5028928;28;20185;-73
2021/11/17 04:14:31;;;;;;;33.50;14.97;;;;;;;4.34;92.14;101918.63;5030170;28;20213;-72
2021/11/17 04:17:03;;;;;;;34.73;14.63;;;;;;;4.35;92.13;101910.25;5034740;28;20197;-73
2021/11/17 04:20:07;;;;;;;37.07;16.00;;;;;;;4.34;92.12;101905.97;5031766;28;20214;-73
2021/11/17 04:22:42;;;;;;;32.20;14.73;;;;;;;4.35;92.03;101912.78;5049567;28;20185;-73
2021/11/17 04:25:45;;;;;;;35.53;14.67;;;;;;;4.32;92.09;101908.41;5048774;28;20177;-70
2021/11/17 04:28:16;;;;;;;32.77;15.23;;;;;;;4.35;92.06;101908.59;5042644;28;20192;-73
2021/11/17 04:31:02;;;;;;;36.07;15.77;;;;;;;4.32;92.37;101905.00;5029792;28;20194;-73
2021/11/17 04:33:44;;;;;;;35.27;14.63;;;;;;;4.35;92.14;101908.59;5008304;28;20202;-73
2021/11/17 04:36:28;;;;;;;39.77;15.60;;;;;;;4.30;92.36;101897.31;5028363;28;20218;-73
2021/11/17 04:39:13;;;;;;;38.00;15.80;;;;;;;4.35;92.24;101910.25;5028110;28;20220;-73
2021/11/17 04:42:01;;;;;;;34.27;14.93;;;;;;;4.35;91.99;101908.59;5031378;28;20197;-73
2021/11/17 04:44:53;;;;;;;30.80;13.60;;;;;;;4.36;91.74;101912.00;5030061;28;20178;-73
2021/11/17 04:47:31;;;;;;;29.00;13.23;;;;;;;4.38;91.47;101905.38;5028470;28;20182;-73
2021/11/17 04:50:06;;;;;;;30.23;13.80;;;;;;;4.38;91.74;101905.38;5031400;28;20213;-73
2021/11/17 04:52:48;;;;;;;31.57;13.50;;;;;;;4.40;91.41;101907.22;5028229;28;20182;-73
2021/11/17 04:55:46;;;;;;;31.73;13.90;;;;;;;4.42;91.48;101908.19;5028205;28;20178;-73
2021/11/17 04:58:36;;;;;;;30.20;14.00;;;;;;;4.39;91.59;101897.88;5027579;28;20233;-71
2021/11/17 05:01:29;;;;;;;31.50;13.13;;;;;;;4.41;91.72;101901.34;5013930;28;20556;-73
2021/11/17 05:04:24;;;;;;;29.47;12.93;;;;;;;4.41;91.45;101896.28;5029270;28;20224;-72
2021/11/17 05:07:13;;;;;;;26.87;13.30;;;;;;;4.42;91.43;101898.03;5028335;28;20209;-73
2021/11/17 05:10:03;;;;;;;25.23;11.20;;;;;;;4.45;91.25;101904.94;5027840;28;20576;-72
2021/11/17 05:12:53;;;;;;;29.47;13.03;;;;;;;4.42;90.95;101899.72;5029553;28;20186;-72
2021/11/17 05:15:40;;;;;;;24.70;11.80;;;;;;;4.42;90.76;101899.72;5028278;28;20174;-73
2021/11/17 05:18:24;;;;;;;26.13;11.77;;;;;;;4.42;90.68;101897.19;5037369;28;20268;-72
2021/11/17 05:21:11;;;;;;;27.27;12.83;;;;;;;4.43;90.54;101897.28;5033483;28;20192;-72
2021/11/17 05:24:08;;;;;;;28.43;13.57;;;;;;;4.45;90.67;101893.16;5032060;28;20200;-73
2021/11/17 05:26:59;;;;;;;27.27;12.93;;;;;;;4.44;90.29;101886.34;5021192;28;20217;-73
2021/11/17 05:29:36;;;;;;;29.90;13.93;;;;;;;4.41;90.77;101888.69;5052006;28;20681;-70
2021/11/17 05:32:27;;;;;;;26.43;12.93;;;;;;;4.44;90.36;101893.94;5031852;28;20638;-73
2021/11/17 05:35:17;;;;;;;26.90;13.77;;;;;;;4.41;90.58;101886.16;5032252;28;20712;-72
2021/11/17 05:38:08;;;;;;;26.87;12.97;;;;;;;4.42;90.80;101882.81;5039489;28;20209;-72
2021/11/17 05:40:48;;;;;;;27.87;14.63;;;;;;;4.42;90.70;101881.97;5051218;28;20221;-73
2021/11/17 05:43:44;;;;;;;29.80;14.43;;;;;;;4.40;90.56;101881.88;5052622;28;20209;-73
2021/11/17 05:46:23;;;;;;;30.97;14.87;;;;;;;4.41;90.54;101883.63;5022294;28;20202;-73
2021/11/17 05:49:19;;;;;;;31.63;13.87;;;;;;;4.40;90.44;101888.59;5035342;28;20240;-72
2021/11/17 05:51:57;;;;;;;28.33;13.97;;;;;;;4.42;90.03;101889.56;5050059;28;20181;-72
2021/11/17 05:54:54;;;;;;;33.00;14.40;;;;;;;4.41;90.46;101890.31;5064349;28;20195;-73
2021/11/17 05:57:38;;;;;;;30.10;14.37;;;;;;;4.40;90.44;101886.06;5014916;28;20226;-73
2021/11/17 06:00:32;;;;;;;29.80;14.00;;;;;;;4.41;90.22;101883.63;5031058;28;20206;-73
2021/11/17 06:03:03;;;;;;;32.73;15.27;;;;;;;4.41;90.19;101888.69;5044157;28;20218;-73
2021/11/17 06:05:29;;;;;;;28.57;14.53;;;;;;;4.41;90.43;101895.41;5052389;28;20236;-72
2021/11/17 06:07:54;;;;;;;28.00;13.97;;;;;;;4.43;90.67;101898.91;5042441;28;20637;-73
2021/11/17 06:10:25;;;;;;;29.77;13.57;;;;;;;4.44;90.26;101895.59;5031223;28;20208;-72
2021/11/17 06:12:51;;;;;;;29.73;14.43;;;;;;;4.43;90.44;101894.75;5032568;28;20555;-73
2021/11/17 06:15:17;;;;;;;31.57;14.33;;;;;;;4.43;90.54;101887.13;5032508;28;20597;-72
2021/11/17 06:17:46;;;;;;;28.20;13.00;;;;;;;4.42;90.21;101895.50;5040507;28;20762;-73
2021/11/17 06:20:16;;;;;;;27.57;13.50;;;;;;;4.44;90.37;101885.44;5030958;28;20710;-72
2021/11/17 06:22:46;;;;;;;28.37;14.10;;;;;;;4.46;90.36;101892.38;5066478;28;20229;-73
2021/11/17 06:25:13;;;;;;;29.90;13.30;;;;;;;4.46;90.42;101896.59;5031320;28;20212;-73
2021/11/17 06:27:42;;;;;;;28.13;13.43;;;;;;;4.46;90.10;101892.38;5032181;28;20185;-73
2021/11/17 06:30:11;;;;;;;28.63;13.43;;;;;;;4.48;90.65;101895.00;5047157;28;20222;-72
2021/11/17 06:32:37;;;;;;;28.87;13.67;;;;;;;4.50;90.48;101899.38;5043573;28;20681;-72
2021/11/17 06:35:04;;;;;;;27.23;12.77;;;;;;;4.52;90.89;101907.09;5050668;28;20225;-73
2021/11/17 06:37:30;;;;;;;28.83;13.43;;;;;;;4.50;90.36;101899.38;5031884;28;20245;-73
2021/11/17 06:39:58;;;;;;;26.97;13.63;;;;;;;4.52;90.38;101899.47;5031605;28;20213;-71
2021/11/17 06:42:38;;;;;;;29.33;13.67;;;;;;;4.51;90.86;101896.06;5030401;28;20187;-72
2021/11/17 06:45:07;;;;;;;30.53;14.47;;;;;;;4.53;90.60;101896.16;5031756;28;20538;-73
2021/11/17 06:47:32;;;;;;;29.50;13.73;;;;;;;4.52;90.25;101887.66;5038453;28;20183;-73
2021/11/17 06:49:58;;;;;;;25.80;12.30;;;;;;;4.55;90.83;101897.13;5027155;28;20210;-74
2021/11/17 06:52:23;;;;;;;30.23;14.07;;;;;;;4.53;90.49;101881.81;5042408;28;20194;-73
2021/11/17 06:54:49;;;;;;;30.13;13.83;;;;;;;4.55;90.43;101875.16;5034727;28;20195;-73
2021/11/17 06:57:18;;;;;;;30.00;14.70;;;;;;;4.55;90.88;101876.84;5061820;28;20214;-74
2021/11/17 06:59:43;;;;;;;27.77;13.63;;;;;;;4.54;90.81;101873.44;5051051;28;20731;-72
2021/11/17 07:02:08;;;;;;;27.57;13.87;;;;;;;4.57;90.70;101871.09;5064344;28;20201;-72
2021/11/17 07:04:36;;;;;;;33.43;14.23;;;;;;;4.55;90.87;101870.09;5071608;28;20193;-74
2021/11/17 07:07:03;;;;;;;28.63;14.07;;;;;;;4.56;90.53;101871.84;5069971;28;20181;-73
2021/11/17 07:09:28;;;;;;;27.47;13.13;;;;;;;4.59;90.23;101866.97;5059641;28;20209;-73
2021/11/17 07:11:54;;;;;;;33.30;14.00;;;;;;;4.62;90.48;101876.41;5031216;28;20579;-73
2021/11/17 07:14:22;;;;;;;30.90;13.30;;;;;;;4.62;90.78;101881.50;5031447;28;20548;-73
2021/11/17 07:16:49;;;;;;;28.00;13.17;;;;;;;4.62;90.28;101871.34;5029749;28;20723;-72
2021/11/17 07:19:16;;;;;;;27.73;13.87;;;;;;;4.64;90.38;101864.69;5030956;28;20213;-72
2021/11/17 07:21:43;;;;;;;30.43;14.53;;;;;;;4.65;89.92;101857.16;5029758;28;20191;-73
2021/11/17 07:24:09;;;;;;;31.53;14.00;;;;;;;4.68;90.45;101842.16;5031039;28;20194;-73
2021/11/17 07:26:35;;;;;;;29.07;13.57;;;;;;;4.70;90.54;101838.03;5030480;28;20222;-73
2021/11/17 07:29:00;;;;;;;30.10;14.97;;;;;;;4.78;90.45;101835.97;5029478;28;20244;-73
2021/11/17 07:31:25;;;;;;;31.60;13.93;;;;;;;4.76;90.42;101853.63;5012775;28;20202;-73
2021/11/17 07:33:51;;;;;;;28.43;13.17;;;;;;;4.80;90.59;101853.03;5030925;28;20194;-73
2021/11/17 07:36:16;;;;;;;29.17;14.13;;;;;;;4.83;90.69;101848.09;5030954;28;20221;-72
2021/11/17 07:38:43;;;;;;;30.63;13.27;;;;;;;4.86;90.04;101866.06;5028901;28;20260;-73
2021/11/17 07:41:08;;;;;;;25.83;12.67;;;;;;;4.85;89.67;101854.16;5030891;28;20361;-73
2021/11/17 07:43:34;;;;;;;28.80;13.90;;;;;;;4.80;90.39;101874.97;5029470;28;20191;-74
2021/11/17 07:45:59;;;;;;;29.73;13.63;;;;;;;4.82;90.50;101894.56;5030953;28;20193;-74
2021/11/17 07:48:26;;;;;;;30.93;13.77;;;;;;;4.85;90.93;101886.25;5012645;28;20191;-74
2021/11/17 07:50:52;;;;;;;31.33;14.17;;;;;;;4.88;90.97;101891.50;5030491;28;20662;-74
2021/11/17 07:53:19;;;;;;;29.87;14.07;;;;;;;4.89;90.76;101886.53;5030588;28;20194;-74
2021/11/17 07:55:46;;;;;;;33.67;14.03;;;;;;;4.91;90.63;101879.00;5030360;28;20198;-74
2021/11/17 07:58:13;;;;;;;28.03;14.00;;;;;;;4.92;90.34;101885.84;5030119;28;20218;-72
2021/11/17 08:00:41;;;;;;;32.10;14.93;;;;;;;4.95;90.56;101883.47;5030311;28;20193;-74
2021/11/17 08:03:09;;;;;;;28.90;14.03;;;;;;;4.97;90.67;101895.44;5029102;28;20186;-74
2021/11/17 08:05:35;;;;;;;30.27;14.67;;;;;;;4.99;90.68;101895.53;5030200;28;20189;-74
2021/11/17 08:08:01;;;;;;;33.13;14.57;;;;;;;5.04;90.23;101886.53;5030002;28;20261;-73
2021/11/17 08:10:30;;;;;;;32.93;15.63;;;;;;;5.08;90.23;101868.16;5028624;28;20689;-73
2021/11/17 08:12:56;;;;;;;28.47;14.23;;;;;;;5.11;90.27;101863.28;5030159;28;20702;-73
2021/11/17 08:15:21;;;;;;;30.13;14.07;;;;;;;5.17;90.35;101863.63;5030151;28;20269;-73
2021/11/17 08:17:47;;;;;;;33.37;15.23;;;;;;;5.15;90.43;101870.28;5028587;28;20595;-73
2021/11/17 08:20:16;;;;;;;35.03;15.17;;;;;;;5.13;90.12;101867.66;5029885;28;20670;-73
2021/11/17 08:22:44;;;;;;;32.50;15.33;;;;;;;5.18;90.04;101862.81;5041840;28;20297;-72
2021/11/17 08:25:11;;;;;;;31.30;15.20;;;;;;;5.17;90.29;101874.66;5029816;28;20190;-71
2021/11/17 08:27:37;;;;;;;33.13;15.03;;;;;;;5.21;90.51;101868.06;5021074;28;20924;-73
2021/11/17 08:30:04;;;;;;;35.87;15.63;;;;;;;5.23;90.73;101877.53;5043524;28;20214;-73
2021/11/17 08:32:30;;;;;;;32.90;15.10;;;;;;;5.24;90.20;101865.69;5021033;28;20210;-74
2021/11/17 08:34:55;;;;;;;34.73;14.70;;;;;;;5.26;90.57;101862.50;5039524;28;20232;-73
2021/11/17 08:37:21;;;;;;;35.07;15.57;;;;;;;5.26;89.91;101849.78;5031356;28;20224;-73
2021/11/17 08:39:50;;;;;;;33.93;15.87;;;;;;;5.31;90.56;101862.72;5027396;28;20206;-73
2021/11/17 08:42:16;;;;;;;34.97;15.20;;;;;;;5.32;89.89;101846.69;5029449;28;20190;-73
2021/11/17 08:44:43;;;;;;;34.43;15.70;;;;;;;5.36;90.29;101843.53;5044641;28;20185;-73
2021/11/17 08:47:11;;;;;;;39.63;16.80;;;;;;;5.34;90.32;101856.16;5011639;28;20190;-74
2021/11/17 08:49:37;;;;;;;35.30;15.77;;;;;;;5.38;89.93;101849.59;5029061;28;20831;-73
2021/11/17 08:52:05;;;;;;;37.03;15.97;;;;;;;5.37;90.17;101866.50;5029024;28;20276;-73
2021/11/17 08:54:30;;;;;;;36.20;16.97;;;;;;;5.34;90.57;101862.91;5029657;28;20209;-73
2021/11/17 08:56:58;;;;;;;33.20;14.77;;;;;;;5.40;91.02;101855.63;5029501;28;20194;-73
2021/11/17 08:59:25;;;;;;;33.53;15.93;;;;;;;5.38;91.07;101842.84;5029242;28;20202;-73
2021/11/17 09:01:50;;;;;;;36.20;15.63;;;;;;;5.42;90.72;101849.84;5040143;28;20186;-73
2021/11/17 09:04:16;;;;;;;33.47;15.77;;;;;;;5.44;90.64;101847.41;5026000;28;20596;-73
2021/11/17 09:06:41;;;;;;;36.27;15.73;;;;;;;5.46;90.21;101846.69;5032464;28;20182;-73
2021/11/17 09:09:07;;;;;;;36.33;16.50;;;;;;;5.52;90.28;101848.72;5047478;28;20673;-72
2021/11/17 09:11:37;;;;;;;33.47;15.87;;;;;;;5.54;90.52;101849.66;5040517;28;20184;-74
2021/11/17 09:14:05;;;;;;;36.00;16.37;;;;;;;5.56;90.29;101853.13;5038694;28;20201;-73
2021/11/17 09:16:32;;;;;;;36.80;16.47;;;;;;;5.54;90.55;101857.28;5027846;28;20813;-72
2021/11/17 09:19:01;;;;;;;35.13;16.50;;;;;;;5.57;90.73;101858.31;5028705;28;20210;-71
2021/11/17 09:21:28;;;;;;;38.87;16.37;;;;;;;5.59;90.66;101855.84;5040715;28;20177;-72
2021/11/17 09:23:53;;;;;;;37.37;17.27;;;;;;;5.58;90.63;101851.56;5048893;28;20169;-72
2021/11/17 09:26:22;;;;;;;35.33;16.73;;;;;;;5.62;90.52;101853.50;5036087;28;20807;-71
2021/11/17 09:28:49;;;;;;;39.17;17.53;;;;;;;5.63;91.03;101858.66;5036576;28;21165;-72
2021/11/17 09:31:15;;;;;;;32.60;16.23;;;;;;;5.71;90.77;101854.00;5048000;28;20733;-72
2021/11/17 09:33:43;;;;;;;37.70;16.70;;;;;;;5.73;90.79;101860.03;5045657;28;20570;-70
2021/11/17 09:36:10;;;;;;;36.00;16.40;;;;;;;5.77;90.50;101844.16;5048635;28;20190;-73
2021/11/17 09:38:35;;;;;;;35.93;17.17;;;;;;;5.76;91.13;101838.19;5046267;28;20235;-72
2021/11/17 09:41:07;;;;;;;38.33;17.50;;;;;;;5.76;91.14;101839.88;5048904;28;20178;-71
2021/11/17 09:43:38;;;;;;;38.67;17.27;;;;;;;5.75;91.02;101839.00;5048713;28;20184;-73
2021/11/17 09:46:05;;;;;;;38.70;18.50;;;;;;;5.71;91.23;101828.59;5048563;28;20198;-73
2021/11/17 09:48:35;;;;;;;40.37;18.67;;;;;;;5.77;91.48;101828.91;5048122;28;20198;-72
2021/11/17 09:51:05;;;;;;;44.07;19.17;;;;;;;5.75;92.09;101822.91;5048801;28;20883;-71
2021/11/17 09:53:49;;;;;;;38.03;17.83;;;;;;;5.80;91.88;101826.56;5047490;28;20190;-73
2021/11/17 09:56:22;;;;;;;42.13;18.33;;;;;;;5.83;92.34;101822.53;5048432;28;20174;-72
2021/11/17 09:58:56;;;;;;;40.93;19.10;;;;;;;5.86;91.98;101820.16;5046936;28;20214;-73
2021/11/17 10:01:37;;;;;;;41.67;19.47;;;;;;;5.93;92.06;101823.88;5047630;28;20783;-73
2021/11/17 10:04:16;;;;;;;36.90;18.70;;;;;;;5.95;91.70;101820.63;5052643;28;20174;-73
2021/11/17 10:12:49;;;;;;;39.23;18.07;;;;;;;5.99;91.39;101816.59;5052387;28;20201;-72
2021/11/17 10:15:11;;;;;;;43.13;18.50;;;;;;;5.99;91.40;101816.59;5050526;28;20194;-73
2021/11/17 10:17:47;;;;;;;38.60;18.63;;;;;;;5.96;92.55;101809.69;5052011;28;20217;-73
2021/11/17 10:20:21;;;;;;;41.47;18.63;;;;;;;5.99;92.04;101814.91;5051609;28;20673;-73
2021/11/17 10:23:08;;;;;;;40.20;20.00;;;;;;;6.00;92.55;101810.72;5051808;28;20213;-73
2021/11/17 10:25:49;;;;;;;43.30;17.97;;;;;;;6.00;91.62;101810.72;5050461;28;20186;-70
2021/11/17 10:28:40;;;;;;;43.50;18.57;;;;;;;6.03;90.90;101813.44;5051248;28;20174;-71
2021/11/17 10:31:15;;;;;;;41.33;18.73;;;;;;;6.01;91.50;101800.66;5051266;28;20205;-72
2021/11/17 10:33:47;;;;;;;41.40;18.73;;;;;;;6.05;91.57;101809.28;5050357;28;20200;-73
2021/11/17 10:36:24;;;;;;;42.30;18.77;;;;;;;6.08;91.82;101804.38;5051717;28;20270;-70
2021/11/17 10:38:56;;;;;;;40.70;18.10;;;;;;;6.07;91.94;101795.88;5049332;28;20208;-72
2021/11/17 10:41:28;;;;;;;43.57;20.13;;;;;;;6.07;92.27;101800.94;5051736;28;20169;-73
2021/11/17 10:44:02;;;;;;;44.27;19.57;;;;;;;6.10;92.22;101805.31;5051626;28;20227;-73
2021/11/17 10:46:35;;;;;;;43.10;19.33;;;;;;;6.13;92.61;101803.81;5050197;28;20759;-73
2021/11/17 10:49:06;;;;;;;39.13;18.53;;;;;;;6.13;92.30;101803.81;5051178;28;20724;-72
2021/11/17 10:51:34;;;;;;;40.57;18.20;;;;;;;6.15;92.35;101807.31;5051867;28;20217;-73
2021/11/17 10:54:08;;;;;;;41.73;19.00;;;;;;;6.14;92.36;101797.94;5033457;28;20694;-74
2021/11/17 10:56:33;;;;;;;45.40;18.73;;;;;;;6.15;92.20;101791.19;5049771;28;20259;-74
2021/11/17 10:59:00;;;;;;;42.10;19.07;;;;;;;6.17;93.57;101784.53;5050763;28;20701;-73
2021/11/17 11:01:28;;;;;;;43.17;19.10;;;;;;;6.19;93.23;101788.91;5051762;28;20182;-74
2021/11/17 11:04:03;;;;;;;38.70;17.90;;;;;;;6.23;93.07;101789.91;5051288;28;20189;-74
2021/11/17 11:06:38;;;;;;;42.10;18.70;;;;;;;6.25;93.13;101784.13;5047558;28;20205;-73
2021/11/17 11:09:27;;;;;;;37.50;17.20;;;;;;;6.30;93.40;101797.06;5029464;28;20217;-74
2021/11/17 11:11:54;;;;;;;35.67;17.57;;;;;;;6.32;93.02;101787.84;5029976;28;20243;-73
2021/11/17 11:14:53;;;;;;;33.03;16.50;;;;;;;6.35;92.79;101786.31;5030319;28;20195;-74
2021/11/17 11:17:18;;;;;;;35.57;16.70;;;;;;;6.35;93.15;101783.78;5025787;28;20265;-74
2021/11/17 11:19:43;;;;;;;34.67;15.40;;;;;;;6.38;93.90;101791.59;5030615;28;20210;-73
2021/11/17 11:22:15;;;;;;;31.97;14.87;;;;;;;6.41;93.05;101801.03;5029789;28;20237;-73
2021/11/17 11:24:52;;;;;;;29.60;15.20;;;;;;;6.45;93.41;101805.50;5049764;28;20232;-73
2021/11/17 11:27:26;;;;;;;28.27;13.87;;;;;;;6.68;93.80;101799.88;5049195;28;20323;-75
2021/11/17 11:30:03;;;;;;;28.77;13.23;;;;;;;6.58;92.79;101805.31;5032622;28;20719;-74
2021/11/17 11:32:29;;;;;;;28.63;13.27;;;;;;;6.55;93.75;101802.59;5049869;28;20193;-72
2021/11/17 11:35:01;;;;;;;30.17;13.83;;;;;;;6.57;93.38;101801.88;5049896;28;20319;-73
2021/11/17 11:37:26;;;;;;;28.33;14.23;;;;;;;6.59;93.91;101791.78;5048561;28;20241;-72
2021/11/17 11:39:58;;;;;;;27.90;15.03;;;;;;;6.62;93.50;101795.34;5050546;28;20347;-72
2021/11/17 11:42:58;;;;;;;26.80;14.40;;;;;;;6.65;92.82;101800.63;5051173;28;20729;-74
2021/11/17 11:45:26;;;;;;;28.33;15.33;;;;;;;6.66;93.28;101792.16;5049871;28;20256;-73
2021/11/17 11:48:02;;;;;;;31.80;15.63;;;;;;;6.69;93.09;101789.78;5049582;28;20174;-72
2021/11/17 11:50:31;;;;;;;31.43;15.57;;;;;;;6.70;93.29;101794.09;5049468;28;20266;-73
2021/11/17 11:53:11;;;;;;;35.53;17.83;;;;;;;6.74;93.59;101779.81;5050966;28;20725;-72
2021/11/17 11:55:52;;;;;;;35.67;15.67;;;;;;;6.76;94.01;101784.19;5051018;28;20220;-73
2021/11/17 11:58:26;;;;;;;38.80;17.83;;;;;;;6.78;93.62;101774.94;5050146;28;20219;-73
2021/11/17 12:01:12;;;;;;;38.70;18.40;;;;;;;6.83;93.37;101773.53;5049480;28;20183;-73
2021/11/17 12:03:49;;;;;;;38.40;19.10;;;;;;;6.86;94.18;101776.19;5049200;28;20185;-71
2021/11/17 12:06:41;;;;;;;42.40;18.43;;;;;;;6.92;93.07;101776.53;5050216;28;20235;-74
2021/11/17 12:09:32;;;;;;;41.83;19.27;;;;;;;7.01;93.10;101779.47;5042436;28;20221;-72
2021/11/17 12:12:02;;;;;;;50.07;21.73;;;;;;;7.12;93.66;101763.06;5050432;28;20194;-74
2021/11/17 12:14:44;;;;;;;50.27;22.53;;;;;;;7.42;93.26;101764.50;5048873;28;20202;-71
2021/11/17 12:17:10;;;;;;;47.33;22.43;;;;;;;7.36;92.66;101751.47;5049848;28;20216;-74
2021/11/17 12:19:45;;;;;;;50.43;24.63;;;;;;;7.38;93.29;101752.41;5048463;28;20213;-74
2021/11/17 12:22:16;;;;;;;50.17;23.87;;;;;;;7.34;92.14;101748.00;5026957;28;20291;-71
2021/11/17 12:24:53;;;;;;;50.13;23.50;;;;;;;7.43;92.92;101742.44;5044504;28;20193;-74
2021/11/17 12:27:29;;;;;;;48.70;23.67;;;;;;;7.46;92.32;101737.50;5027886;28;20281;-72
2021/11/17 12:30:12;;;;;;;51.27;25.00;;;;;;;7.43;92.32;101745.00;5027847;28;20307;-73
2021/11/17 12:32:53;;;;;;;54.53;24.97;;;;;;;7.43;92.53;101740.78;5027863;28;20223;-73
2021/11/17 12:35:33;;;;;;;50.47;23.90;;;;;;;7.47;92.93;101729.06;5029211;28;20190;-73
2021/11/17 12:38:26;;;;;;;57.73;27.20;;;;;;;7.53;92.88;101729.31;5047044;28;20205;-73
2021/11/17 12:40:54;;;;;;;49.33;24.93;;;;;;;7.63;92.58;101734.03;5040256;28;20206;-72
2021/11/17 12:43:37;;;;;;;54.40;26.43;;;;;;;7.70;91.79;101736.06;5028264;28;20628;-73
2021/11/17 12:46:25;;;;;;;52.87;24.97;;;;;;;7.73;91.93;101724.31;5029273;28;20209;-73
2021/11/17 12:49:02;;;;;;;49.63;23.90;;;;;;;7.73;91.69;101721.78;5027427;28;20293;-71
2021/11/17 12:51:32;;;;;;;51.00;24.80;;;;;;;7.74;91.36;101726.06;5029133;28;20643;-74
2021/11/17 12:54:13;;;;;;;50.83;25.30;;;;;;;7.77;91.76;101731.31;5027588;28;20687;-74
2021/11/17 12:56:49;;;;;;;52.00;24.70;;;;;;;8.12;91.45;101726.09;5028758;28;20245;-74
2021/11/17 12:59:36;;;;;;;48.60;22.93;;;;;;;8.22;90.15;101720.59;5028770;28;20784;-74
2021/11/17 13:02:22;;;;;;;47.63;23.67;;;;;;;8.33;90.53;101714.25;5013721;28;20208;-73
2021/11/17 13:04:51;;;;;;;40.67;22.97;;;;;;;8.58;88.92;101708.50;5013568;28;20198;-74
2021/11/17 13:07:41;;;;;;;40.20;21.73;;;;;;;8.32;88.16;101716.75;5036418;28;20197;-75
2021/11/17 13:10:07;;;;;;;43.93;23.07;;;;;;;8.35;89.66;101729.63;5043689;28;20217;-74
2021/11/17 13:12:35;;;;;;;47.73;24.13;;;;;;;8.24;90.00;101739.38;5028800;28;20182;-74
2021/11/17 13:15:03;;;;;;;46.13;23.90;;;;;;;8.21;89.73;101739.25;5028821;28;20289;-74
2021/11/17 13:17:45;;;;;;;48.80;24.40;;;;;;;8.28;89.93;101750.59;5028455;28;20770;-72
2021/11/17 13:20:14;;;;;;;44.73;22.77;;;;;;;8.37;90.79;101746.75;5028441;28;20566;-74
2021/11/17 13:22:45;;;;;;;48.20;24.60;;;;;;;8.34;89.94;101759.38;5023857;28;20245;-73
2021/11/17 13:25:10;;;;;;;48.33;24.17;;;;;;;8.26;89.96;101762.41;5047201;28;20170;-74
2021/11/17 13:27:40;;;;;;;48.50;26.23;;;;;;;8.12;89.85;101777.09;5046883;28;20212;-74
2021/11/17 13:30:21;;;;;;;49.77;25.67;;;;;;;8.11;89.88;101774.47;5046652;28;20526;-74
2021/11/17 13:32:49;;;;;;;53.33;26.37;;;;;;;8.10;90.93;101758.28;5047307;28;20190;-72
2021/11/17 13:35:35;;;;;;;54.00;27.43;;;;;;;8.10;90.79;101760.84;5031011;28;20185;-74
2021/11/17 13:38:31;;;;;;;48.47;26.83;;;;;;;8.14;90.75;101754.19;5051799;28;20210;-74
2021/11/17 13:41:04;;;;;;;50.33;26.43;;;;;;;8.14;90.18;101756.75;5040076;28;20233;-75
2021/11/17 13:43:30;;;;;;;51.53;26.63;;;;;;;8.16;89.78;101761.09;5052813;28;20198;-73
2021/11/17 13:45:57;;;;;;;50.83;26.30;;;;;;;8.14;89.77;101757.63;5051142;28;20589;-74
2021/11/17 13:48:29;;;;;;;50.87;27.67;;;;;;;8.10;91.05;101757.41;5052395;28;20185;-74
2021/11/17 13:50:56;;;;;;;55.60;28.13;;;;;;;8.15;90.02;101751.72;5047734;28;20754;-73
2021/11/17 13:53:22;;;;;;;56.27;29.20;;;;;;;8.13;90.40;101753.34;5032747;28;20189;-73
2021/11/17 13:56:00;;;;;;;54.60;27.80;;;;;;;8.38;90.58;101766.34;5032708;28;20194;-72
2021/11/17 13:58:26;;;;;;;56.07;29.13;;;;;;;8.59;89.31;101753.63;5032391;28;20225;-74
2021/11/17 14:00:53;;;;;;;54.53;28.80;;;;;;;8.67;89.67;101760.78;5032595;28;20179;-71
2021/11/17 14:03:18;;;;;;;50.03;27.97;;;;;;;8.68;89.16;101771.88;5032749;28;20202;-72
2021/11/17 14:05:46;;;;;;;52.80;29.10;;;;;;;8.56;89.36;101768.81;5032661;28;20190;-72
2021/11/17 14:08:13;;;;;;;58.83;29.30;;;;;;;8.63;89.49;101774.25;5032254;28;20697;-73
2021/11/17 14:10:39;;;;;;;58.87;30.30;;;;;;;8.66;88.95;101776.06;5031002;28;20226;-73
2021/11/17 14:13:05;;;;;;;61.33;31.30;;;;;;;8.70;88.97;101780.50;5014522;28;20206;-73
2021/11/17 14:15:32;;;;;;;55.27;29.73;;;;;;;8.72;88.56;101782.31;5032427;28;20301;-72
2021/11/17 14:17:58;;;;;;;56.53;28.97;;;;;;;8.74;88.15;101777.25;5030580;28;20249;-71
2021/11/17 14:20:24;;;;;;;61.90;32.37;;;;;;;8.75;88.83;101776.44;5032307;28;20253;-73
2021/11/17 14:22:49;;;;;;;56.00;30.47;;;;;;;8.83;88.00;101788.72;5036073;28;20737;-72
2021/11/17 14:25:19;;;;;;;53.60;28.40;;;;;;;8.83;87.55;101783.59;5051730;28;20276;-72